Disclaimer

Please do not use the information listed here in-flight or in-navigation, as they are not provided to us by the airports but are provided by volunteers, so they might be outdated.

Search


Regions


Airport information page

Radio informations:
AFONSOS TWR - 118.9 MHz
AFONSOS - 121.85 MHz
RIO APP - 119.35 MHz

Airport informations:
Latitude: 22° 52' 30.30" S
Longitude: 043° 23' 04.95" W
Elevation: 110 feet - 34 meters
Operating hours: N/A
Operating agency: Military
Timezone: UTC-3(-2DT)
Fuel: Jet A1, without icing nhibitor.

100/130 octane gasoline, leaded, MIL-L-5572F (GREEN)

Runway information:
08/26 - 6565 x 171 feet< - >2001 x 52 meters

Recent METARs:
SBAF 211600Z 01002KT 7000 SCT015 BKN020 OVC060 24/19 Q1019
SBAF 211600Z 01002KT 7000 SCT015 BKN020 OVC060 24/19 Q1019
SBAF 211700Z 15002KT 9000 BKN020 OVC050 25/20 Q1018

Airport on the map: